Pease, Minnesota
Current Conditions -  °F | °C
As of 9:54 AM on Thursday 23 Oct 2014 (Local Time) from KPNM Reporting Station
Haze Haze  
Wind Chill: 55°   Ceiling: 500
Heat Index: 55°   Visibility: 2.5mi
Dew Point: 54°   Wind: 5mph
Humidity: 94%   Direction: 200°SSW
Pressure: 29.99"   Gusts: NA
Location:  45.7°N, 93.65°W
Report Text: KPNM 231454Z AUTO 20004KT 2 1/2SM BR OVC005 13/12 A2999 RMK AO2
Loading
Personal Weather Stations






























Interactive Weather Map
Tropical Storm Tracking
New forecast layout! Learn more

10-Day Weather Forecast

Advertisements
Track Severe Weather on mobile